createdAt,value
2022-10-30T00:00:01.513Z,49.30
2022-10-30T00:03:04.292Z,47.50
2022-10-30T00:06:06.851Z,53.10
2022-10-30T00:09:08.902Z,54.20
2022-10-30T00:12:10.698Z,46.70
2022-10-30T00:15:14.717Z,53.60
2022-10-30T00:18:16.656Z,54.60
2022-10-30T00:21:18.509Z,50.10
2022-10-30T00:24:20.493Z,54.40
2022-10-30T00:27:22.429Z,52.20
2022-10-30T00:30:24.191Z,50.70
2022-10-30T00:33:26.324Z,57.20
2022-10-30T00:36:27.932Z,52.40
2022-10-30T00:39:29.697Z,58.20
2022-10-30T00:42:32.021Z,56.80
2022-10-30T00:45:33.762Z,57.00
2022-10-30T00:48:36.072Z,60.20
2022-10-30T00:51:39.460Z,65.80
2022-10-30T00:54:41.102Z,67.50
2022-10-30T00:57:43.056Z,59.90
2022-10-30T01:00:52.038Z,61.40
2022-10-30T01:03:57.123Z,66.50
2022-10-30T01:07:00.235Z,62.90
2022-10-30T01:10:01.931Z,61.20
2022-10-30T01:13:03.878Z,66.20
2022-10-30T01:16:34.839Z,65.50
2022-10-30T01:20:04.621Z,69.10
2022-10-30T01:23:47.710Z,63.90
2022-10-30T01:27:14.367Z,58.00
2022-10-30T01:30:42.247Z,57.40
2022-10-30T01:34:22.385Z,65.20
2022-10-30T01:37:46.309Z,56.20
2022-10-30T01:40:48.064Z,64.40
2022-10-30T01:43:53.684Z,63.00
2022-10-30T01:47:00.681Z,75.40
2022-10-30T01:50:11.488Z,74.90
2022-10-30T01:53:22.943Z,70.30
2022-10-30T01:56:51.052Z,66.90
2022-10-30T02:00:04.208Z,66.20
2022-10-30T02:03:06.342Z,67.50
2022-10-30T02:06:08.136Z,64.40
2022-10-30T02:09:09.892Z,66.10
2022-10-30T02:12:11.711Z,61.30
2022-10-30T02:15:13.406Z,59.40
2022-10-30T02:18:15.230Z,58.70
2022-10-30T02:21:17.074Z,60.80
2022-10-30T02:24:19.747Z,58.80
2022-10-30T02:27:21.404Z,56.70
2022-10-30T02:30:23.790Z,57.00
2022-10-30T02:33:28.772Z,55.80
2022-10-30T02:36:30.656Z,55.10
2022-10-30T02:39:32.460Z,51.60
2022-10-30T02:42:35.082Z,56.40
2022-10-30T02:45:36.925Z,60.50
2022-10-30T02:48:38.671Z,57.40
2022-10-30T02:51:40.281Z,54.70
2022-10-30T02:54:42.033Z,63.40
2022-10-30T02:57:43.751Z,53.40
2022-10-30T03:00:45.738Z,62.60
2022-10-30T03:03:47.571Z,59.50
2022-10-30T03:06:49.303Z,58.50
2022-10-30T03:09:52.238Z,58.00
2022-10-30T03:12:53.969Z,59.10
2022-10-30T03:16:10.755Z,55.70
2022-10-30T03:19:12.449Z,56.20
2022-10-30T03:22:14.227Z,58.30
2022-10-30T03:25:16.066Z,62.50
2022-10-30T03:28:17.810Z,60.80
2022-10-30T03:31:19.468Z,65.00
2022-10-30T03:34:21.123Z,55.70
2022-10-30T03:37:22.786Z,58.90
2022-10-30T03:40:24.601Z,55.40
2022-10-30T03:43:26.476Z,61.70
2022-10-30T03:46:28.163Z,60.80
2022-10-30T03:49:29.868Z,62.10
2022-10-30T03:52:31.758Z,59.80
2022-10-30T03:55:36.551Z,63.00
2022-10-30T03:58:38.298Z,58.30
2022-10-30T04:01:40.113Z,60.40
2022-10-30T04:04:42.081Z,58.60
2022-10-30T04:07:43.788Z,56.00
2022-10-30T04:10:47.433Z,57.90
2022-10-30T04:13:49.346Z,57.20
2022-10-30T04:16:51.004Z,58.50
2022-10-30T04:19:52.728Z,56.40
2022-10-30T04:22:58.880Z,63.80
2022-10-30T04:26:02.141Z,67.80
2022-10-30T04:29:03.911Z,61.70
2022-10-30T04:35:12.694Z,72.80
2022-10-30T04:38:15.380Z,74.40
2022-10-30T04:41:17.784Z,72.60
2022-10-30T04:44:19.470Z,70.90
2022-10-30T04:47:21.356Z,67.20
2022-10-30T04:50:23.112Z,65.70
2022-10-30T04:53:25.852Z,72.50
2022-10-30T04:56:27.626Z,75.20
2022-10-30T04:59:29.401Z,80.80
2022-10-30T05:02:31.289Z,69.80
2022-10-30T05:05:33.751Z,70.40
2022-10-30T05:08:35.353Z,72.40
2022-10-30T05:11:37.396Z,73.30
2022-10-30T05:14:39.277Z,78.50
2022-10-30T05:17:41.027Z,80.30
2022-10-30T05:20:42.732Z,80.60
2022-10-30T05:23:44.477Z,84.10
2022-10-30T05:26:46.701Z,86.50
2022-10-30T05:29:48.537Z,79.80
2022-10-30T05:32:50.232Z,86.00
2022-10-30T05:35:51.908Z,85.80
2022-10-30T05:38:53.647Z,84.60
2022-10-30T05:41:55.454Z,82.60
2022-10-30T05:45:01.668Z,83.80
2022-10-30T05:48:06.246Z,80.70
2022-10-30T05:51:08.917Z,94.20
2022-10-30T05:54:10.732Z,97.20
2022-10-30T05:57:12.571Z,91.90
2022-10-30T06:00:14.941Z,90.50
2022-10-30T06:03:17.707Z,82.90
2022-10-30T06:06:20.421Z,76.10
2022-10-30T06:09:22.859Z,67.10
2022-10-30T06:12:24.601Z,63.70
2022-10-30T06:15:26.955Z,65.20
2022-10-30T06:18:28.669Z,61.60
2022-10-30T06:21:30.480Z,59.40
2022-10-30T06:24:32.178Z,53.70
2022-10-30T06:27:37.062Z,51.20
2022-10-30T06:30:38.874Z,49.80
2022-10-30T06:33:40.631Z,49.70
2022-10-30T06:36:42.737Z,47.90
2022-10-30T06:39:44.472Z,43.80
2022-10-30T06:42:47.511Z,46.70
2022-10-30T06:45:49.959Z,44.50
2022-10-30T06:48:51.744Z,43.10
2022-10-30T06:51:53.528Z,47.00
2022-10-30T06:54:55.244Z,43.70
2022-10-30T06:57:57.856Z,43.70
2022-10-30T07:01:01.223Z,47.30
2022-10-30T07:04:02.932Z,45.10
2022-10-30T07:07:04.993Z,43.20
2022-10-30T07:10:07.104Z,43.70
2022-10-30T07:13:09.124Z,38.40
2022-10-30T07:16:11.041Z,39.70
2022-10-30T07:19:12.757Z,39.90
2022-10-30T07:22:14.406Z,41.60
2022-10-30T07:25:16.104Z,46.30
2022-10-30T07:28:17.997Z,40.00
2022-10-30T07:31:29.030Z,42.90
2022-10-30T07:34:41.943Z,40.80
2022-10-30T07:37:43.715Z,41.00
2022-10-30T07:40:53.062Z,40.00
2022-10-30T07:43:54.728Z,44.10
2022-10-30T07:46:56.382Z,42.70
2022-10-30T07:49:58.085Z,38.80
2022-10-30T07:52:59.948Z,39.40
2022-10-30T07:56:01.651Z,39.00
2022-10-30T07:59:03.523Z,39.90
2022-10-30T08:02:05.404Z,39.30
2022-10-30T08:05:07.911Z,36.80
2022-10-30T08:08:09.790Z,35.20
2022-10-30T08:11:11.579Z,38.30
2022-10-30T08:14:13.331Z,35.80
2022-10-30T08:17:15.366Z,34.20
2022-10-30T08:20:19.897Z,34.10
2022-10-30T08:23:21.998Z,32.80
2022-10-30T08:26:23.744Z,32.10
2022-10-30T08:29:25.655Z,30.40
2022-10-30T08:32:27.368Z,29.10
2022-10-30T08:35:29.549Z,28.40
2022-10-30T08:38:31.339Z,29.50
2022-10-30T08:41:32.976Z,28.90
2022-10-30T08:44:34.666Z,25.80
2022-10-30T08:47:36.721Z,25.70
2022-10-30T08:50:38.919Z,24.90
2022-10-30T08:53:40.597Z,28.60
2022-10-30T08:56:42.272Z,27.10
2022-10-30T08:59:44.226Z,27.40
2022-10-30T09:02:46.244Z,26.10
2022-10-30T09:05:48.264Z,29.40
2022-10-30T09:08:49.868Z,25.00
2022-10-30T09:11:52.662Z,27.30
2022-10-30T09:14:54.490Z,27.10
2022-10-30T09:18:01.573Z,24.80
2022-10-30T09:21:05.165Z,25.50
2022-10-30T09:24:07.527Z,29.90
2022-10-30T09:27:09.439Z,27.20
2022-10-30T09:30:12.538Z,27.70
2022-10-30T09:33:14.234Z,26.20
2022-10-30T09:36:18.150Z,26.20
2022-10-30T09:39:23.258Z,26.50
2022-10-30T09:42:37.778Z,24.60
2022-10-30T09:45:56.820Z,27.10
2022-10-30T09:52:37.367Z,25.00
2022-10-30T09:55:51.479Z,26.60
2022-10-30T09:59:06.417Z,24.80
2022-10-30T10:02:11.356Z,28.30
2022-10-30T10:05:23.813Z,21.80
2022-10-30T10:08:34.401Z,25.00
2022-10-30T10:14:42.490Z,24.80
2022-10-30T10:17:47.109Z,24.00
2022-10-30T10:20:52.159Z,25.20
2022-10-30T10:24:00.347Z,23.00
2022-10-30T10:27:43.964Z,28.50
2022-10-30T10:31:14.629Z,24.70
2022-10-30T10:34:22.385Z,26.30
2022-10-30T10:37:46.706Z,26.50
2022-10-30T10:40:59.233Z,25.90
2022-10-30T10:44:07.978Z,24.10
2022-10-30T10:47:32.421Z,22.50
2022-10-30T10:50:52.620Z,30.10
2022-10-30T10:53:58.891Z,22.30
2022-10-30T10:57:00.499Z,25.90
2022-10-30T11:00:05.612Z,24.80
2022-10-30T11:03:12.313Z,24.90
2022-10-30T11:06:17.135Z,26.90
2022-10-30T11:09:23.749Z,27.40
2022-10-30T11:12:32.295Z,24.30
2022-10-30T11:15:55.398Z,25.90
2022-10-30T11:22:03.860Z,25.50
2022-10-30T11:25:28.586Z,27.30
2022-10-30T11:28:41.564Z,25.40
2022-10-30T11:31:44.688Z,25.80
2022-10-30T11:34:46.455Z,24.50
2022-10-30T11:37:56.397Z,25.60
2022-10-30T11:41:02.038Z,26.80
2022-10-30T11:44:05.233Z,28.90
2022-10-30T11:47:08.067Z,29.10
2022-10-30T11:50:22.504Z,33.20
2022-10-30T11:53:38.632Z,30.20
2022-10-30T11:56:47.046Z,27.60
2022-10-30T11:59:51.835Z,29.40
2022-10-30T12:02:56.979Z,28.60
2022-10-30T12:06:19.374Z,25.70
2022-10-30T12:09:22.635Z,27.80
2022-10-30T12:12:34.395Z,25.10
2022-10-30T12:15:40.341Z,26.20
2022-10-30T12:18:43.855Z,26.40
2022-10-30T12:21:48.036Z,23.80
2022-10-30T12:24:49.776Z,28.30
2022-10-30T12:27:58.881Z,27.30
2022-10-30T12:31:03.695Z,26.60
2022-10-30T12:34:31.949Z,26.10
2022-10-30T12:37:39.077Z,27.50
2022-10-30T12:40:59.063Z,28.70
2022-10-30T12:44:09.040Z,28.60
2022-10-30T12:47:23.516Z,27.30
2022-10-30T12:50:35.543Z,26.70
2022-10-30T12:54:02.786Z,27.50
2022-10-30T12:57:11.504Z,27.90
2022-10-30T13:00:16.271Z,28.50
2022-10-30T13:03:40.473Z,24.70
2022-10-30T13:06:47.964Z,27.50
2022-10-30T13:10:14.818Z,27.60
2022-10-30T13:13:23.885Z,28.50
2022-10-30T13:16:30.428Z,27.70
2022-10-30T13:19:32.349Z,26.40
2022-10-30T13:22:50.193Z,27.80
2022-10-30T13:26:28.276Z,28.50
2022-10-30T13:29:51.285Z,27.30
2022-10-30T13:33:12.264Z,28.60
2022-10-30T13:36:33.356Z,28.20
2022-10-30T13:39:47.974Z,25.70
2022-10-30T13:43:17.957Z,27.60
2022-10-30T13:46:38.604Z,28.60
2022-10-30T13:49:49.665Z,26.20
2022-10-30T13:52:55.627Z,27.80
2022-10-30T13:55:57.859Z,28.20
2022-10-30T13:59:38.935Z,27.60
2022-10-30T14:05:47.997Z,26.70
2022-10-30T14:09:21.058Z,24.10
2022-10-30T14:12:53.390Z,29.20
2022-10-30T14:16:06.608Z,31.00
2022-10-30T14:19:17.497Z,25.10
2022-10-30T14:22:23.649Z,24.30
2022-10-30T14:25:25.313Z,29.60
2022-10-30T14:28:27.089Z,27.80
2022-10-30T14:31:36.278Z,27.50
2022-10-30T14:34:46.466Z,28.70
2022-10-30T14:37:48.268Z,26.40
2022-10-30T14:40:53.046Z,30.80
2022-10-30T14:44:11.785Z,27.10
2022-10-30T14:47:51.458Z,29.40
2022-10-30T14:51:24.312Z,32.80
2022-10-30T14:54:46.282Z,27.80
2022-10-30T14:58:16.017Z,27.40
2022-10-30T15:01:28.564Z,29.40
2022-10-30T15:05:05.389Z,32.40
2022-10-30T15:08:23.897Z,28.10
2022-10-30T15:11:51.587Z,36.20
2022-10-30T15:14:58.991Z,31.60
2022-10-30T15:18:07.648Z,32.30
2022-10-30T15:21:20.621Z,35.70
2022-10-30T15:24:32.129Z,34.50
2022-10-30T15:27:35.802Z,39.10
2022-10-30T15:30:40.538Z,44.80
2022-10-30T15:33:45.216Z,44.60
2022-10-30T15:36:46.853Z,52.20
2022-10-30T15:39:48.802Z,42.40
2022-10-30T15:42:51.361Z,37.80
2022-10-30T15:45:55.105Z,37.00
2022-10-30T15:48:56.766Z,33.40
2022-10-30T15:51:59.626Z,32.50
2022-10-30T15:55:10.159Z,37.20
2022-10-30T15:58:16.444Z,36.00
2022-10-30T16:01:41.328Z,33.90
2022-10-30T16:04:43.167Z,31.20
2022-10-30T16:07:45.620Z,34.00
2022-10-30T16:10:47.670Z,31.60
2022-10-30T16:13:50.115Z,33.30
2022-10-30T16:16:52.158Z,33.80
2022-10-30T16:20:01.584Z,31.70
2022-10-30T16:23:04.995Z,33.80
2022-10-30T16:26:07.036Z,30.60
2022-10-30T16:29:14.436Z,31.90
2022-10-30T16:32:19.224Z,34.10
2022-10-30T16:35:23.558Z,36.90
2022-10-30T16:38:28.378Z,37.90
2022-10-30T16:41:30.743Z,37.20
2022-10-30T16:44:34.208Z,32.20
2022-10-30T16:47:37.884Z,36.00
2022-10-30T16:50:39.638Z,35.80
2022-10-30T16:53:47.248Z,36.20
2022-10-30T16:56:51.258Z,33.60
2022-10-30T16:59:53.311Z,36.50
2022-10-30T17:02:56.919Z,37.70
2022-10-30T17:06:04.805Z,41.80
2022-10-30T17:09:21.212Z,41.00
2022-10-30T17:12:29.925Z,36.20
2022-10-30T17:15:32.320Z,43.60
2022-10-30T17:18:34.228Z,42.70
2022-10-30T17:21:41.008Z,95.30
2022-10-30T17:24:42.918Z,121.30
2022-10-30T17:27:47.643Z,67.90
2022-10-30T17:30:49.320Z,78.00
2022-10-30T17:34:14.969Z,52.10
2022-10-30T17:37:16.673Z,167.70
2022-10-30T17:40:19.718Z,61.80
2022-10-30T17:43:23.779Z,53.50
2022-10-30T17:46:25.513Z,61.60
2022-10-30T17:49:32.195Z,64.30
2022-10-30T17:52:34.130Z,59.50
2022-10-30T17:55:36.885Z,59.50
2022-10-30T17:58:38.683Z,61.80
2022-10-30T18:01:40.500Z,59.30
2022-10-30T18:04:42.949Z,58.40
2022-10-30T18:07:45.272Z,55.00
2022-10-30T18:10:47.384Z,55.60
2022-10-30T18:13:50.917Z,59.80
2022-10-30T18:16:55.516Z,51.70
2022-10-30T18:19:57.360Z,56.10
2022-10-30T18:23:00.040Z,38.40
2022-10-30T18:26:02.028Z,95.20
2022-10-30T18:29:04.014Z,63.80
2022-10-30T18:32:09.578Z,59.80
2022-10-30T18:35:14.743Z,60.80
2022-10-30T18:38:17.139Z,35.80
2022-10-30T18:41:29.631Z,31.10
2022-10-30T18:44:31.337Z,270.40
2022-10-30T18:47:33.986Z,189.70
2022-10-30T18:50:36.780Z,78.90
2022-10-30T18:53:38.680Z,59.00
2022-10-30T18:56:40.327Z,61.70
2022-10-30T18:59:42.116Z,137.50
2022-10-30T19:02:43.970Z,74.00
2022-10-30T19:05:48.267Z,69.50
2022-10-30T19:08:50.604Z,69.50
2022-10-30T19:11:52.309Z,84.00
2022-10-30T19:14:54.176Z,46.20
2022-10-30T19:17:56.143Z,54.60
2022-10-30T19:21:04.327Z,57.50
2022-10-30T19:24:13.553Z,54.20
2022-10-30T19:27:15.220Z,88.60
2022-10-30T19:30:18.112Z,317.60
2022-10-30T19:33:21.777Z,88.00
2022-10-30T19:36:42.811Z,47.60
2022-10-30T19:39:44.475Z,45.00
2022-10-30T19:42:46.201Z,45.40
2022-10-30T19:45:51.310Z,48.20
2022-10-30T19:48:57.822Z,51.00
2022-10-30T19:52:00.139Z,52.40
2022-10-30T19:55:01.865Z,54.10
2022-10-30T19:58:05.090Z,55.60
2022-10-30T20:01:06.892Z,39.00
2022-10-30T20:04:08.659Z,67.40
2022-10-30T20:07:10.395Z,40.10
2022-10-30T20:10:17.764Z,55.60
2022-10-30T20:13:20.809Z,36.70
2022-10-30T20:16:22.458Z,48.80
2022-10-30T20:19:31.214Z,65.60
2022-10-30T20:22:33.020Z,59.30
2022-10-30T20:25:34.649Z,49.30
2022-10-30T20:28:39.107Z,52.00
2022-10-30T20:31:40.820Z,42.50
2022-10-30T20:34:42.503Z,51.40
2022-10-30T20:37:56.657Z,37.50
2022-10-30T20:41:01.232Z,48.90
2022-10-30T20:44:02.973Z,87.70
2022-10-30T20:47:04.745Z,56.80
2022-10-30T20:50:06.704Z,48.70
2022-10-30T20:53:12.197Z,51.60
2022-10-30T20:56:13.831Z,63.50
2022-10-30T20:59:16.394Z,41.30
2022-10-30T21:02:18.131Z,49.80
2022-10-30T21:05:42.023Z,34.60
2022-10-30T21:11:43.488Z,42.90
2022-10-30T21:14:45.244Z,44.90
2022-10-30T21:17:47.057Z,65.70
2022-10-30T21:20:48.682Z,48.70
2022-10-30T21:23:54.042Z,57.70
2022-10-30T21:26:55.777Z,68.20
2022-10-30T21:29:57.466Z,64.60
2022-10-30T21:32:59.696Z,91.20
2022-10-30T21:36:12.024Z,84.00
2022-10-30T21:39:14.302Z,133.70
2022-10-30T21:42:16.073Z,75.70
2022-10-30T21:45:17.752Z,37.30
2022-10-30T21:48:19.491Z,45.90
2022-10-30T21:51:23.750Z,49.30
2022-10-30T21:54:25.591Z,36.60
2022-10-30T21:57:28.763Z,59.80
2022-10-30T22:00:30.902Z,64.60
2022-10-30T22:03:33.550Z,65.20
2022-10-30T22:06:41.487Z,49.20
2022-10-30T22:09:43.323Z,62.90
2022-10-30T22:12:44.939Z,90.40
2022-10-30T22:18:56.345Z,51.30
2022-10-30T22:21:58.193Z,45.80
2022-10-30T22:24:59.826Z,42.80
2022-10-30T22:31:17.730Z,56.40
2022-10-30T22:34:19.431Z,44.00
2022-10-30T22:37:21.331Z,43.00
2022-10-30T22:40:23.120Z,48.40
2022-10-30T22:43:24.718Z,41.70
2022-10-30T22:46:28.309Z,51.30
2022-10-30T22:49:29.896Z,45.60
2022-10-30T22:52:31.588Z,51.20
2022-10-30T22:55:33.212Z,51.10
2022-10-30T22:58:34.862Z,52.50
2022-10-30T23:01:37.923Z,58.20
2022-10-30T23:04:39.666Z,69.80
2022-10-30T23:10:42.812Z,53.40
2022-10-30T23:13:45.525Z,51.60
2022-10-30T23:16:47.268Z,61.10
2022-10-30T23:19:48.953Z,72.00
2022-10-30T23:22:50.771Z,74.90
2022-10-30T23:25:52.464Z,75.20
2022-10-30T23:28:55.291Z,73.70
2022-10-30T23:31:57.021Z,74.10
2022-10-30T23:34:58.740Z,86.30
2022-10-30T23:38:00.464Z,89.90
2022-10-30T23:41:02.276Z,94.20
2022-10-30T23:44:06.110Z,119.50
2022-10-30T23:47:08.014Z,95.40
2022-10-30T23:50:11.052Z,84.10
2022-10-30T23:53:12.808Z,91.70
2022-10-30T23:56:14.950Z,85.00
2022-10-30T23:59:16.657Z,90.70
